Time;durP1;ratioP1;P1;durP2;ratioP2;P2;SDS_P1;SDS_P2;PMS_P1;PMS_P2;Temp;Humidity;BMP_temperature;BMP_pressure;BME280_temperature;BME280_humidity;BME280_pressure;Samples;Min_cycle;Max_cycle;Signal;HPM_P1;HPM_P2
2024/04/19 00:00:08;;;;;;;11.10;6.43;;;;;;;3.33;100.00;99094.41;5350785;26;20053;-53
2024/04/19 00:02:33;;;;;;;10.50;6.38;;;;;;;3.32;100.00;99098.91;5365105;26;20009;-53
2024/04/19 00:04:59;;;;;;;11.80;6.75;;;;;;;3.28;100.00;99085.00;5342419;26;20074;-53
2024/04/19 00:07:24;;;;;;;10.90;6.45;;;;;;;3.33;100.00;99084.56;5356110;26;20001;-53
2024/04/19 00:09:49;;;;;;;11.32;6.63;;;;;;;3.39;100.00;99078.63;5357106;26;20009;-53
2024/04/19 00:12:15;;;;;;;14.07;6.57;;;;;;;3.40;100.00;99069.59;5317412;26;20028;-53
2024/04/19 00:14:41;;;;;;;10.80;6.88;;;;;;;3.41;100.00;99073.97;5343669;26;20075;-53
2024/04/19 00:17:06;;;;;;;9.80;6.10;;;;;;;3.41;100.00;99078.47;5351827;26;20001;-53
2024/04/19 00:19:31;;;;;;;11.50;6.43;;;;;;;3.35;100.00;99077.22;5354760;26;20016;-53
2024/04/19 00:21:57;;;;;;;13.20;6.93;;;;;;;3.34;100.00;99066.69;5344921;26;20004;-53
2024/04/19 00:24:22;;;;;;;10.48;6.65;;;;;;;3.33;100.00;99065.84;5331017;26;20331;-53
2024/04/19 00:26:48;;;;;;;14.55;6.38;;;;;;;3.29;100.00;99051.09;5341345;26;20005;-53
2024/04/19 00:29:13;;;;;;;9.82;6.72;;;;;;;3.22;100.00;99050.00;5360171;26;20000;-53
2024/04/19 00:31:38;;;;;;;13.55;6.38;;;;;;;3.20;100.00;99042.16;5345419;26;20001;-54
2024/04/19 00:34:04;;;;;;;12.88;6.90;;;;;;;3.17;100.00;99046.94;5349030;26;20016;-53
2024/04/19 00:36:29;;;;;;;14.00;6.50;;;;;;;3.20;100.00;99050.16;5349111;26;19997;-53
2024/04/19 00:38:55;;;;;;;12.52;7.07;;;;;;;3.22;100.00;99045.53;5371758;26;20423;-53
2024/04/19 00:41:20;;;;;;;16.27;6.63;;;;;;;3.19;100.00;99045.78;5349342;26;19997;-53
2024/04/19 00:43:45;;;;;;;11.63;6.43;;;;;;;3.19;100.00;99053.81;5356427;26;20012;-54
2024/04/19 00:46:12;;;;;;;12.45;6.85;;;;;;;3.11;100.00;99048.38;5334967;26;20082;-53
2024/04/19 00:48:38;;;;;;;11.38;6.75;;;;;;;3.10;100.00;99052.06;5347390;26;20039;-53
2024/04/19 00:51:04;;;;;;;11.43;6.45;;;;;;;3.11;100.00;99055.56;5354364;26;20005;-53
2024/04/19 00:53:32;;;;;;;11.48;6.05;;;;;;;3.12;100.00;99057.22;5344319;26;20036;-53
2024/04/19 00:56:00;;;;;;;11.52;6.70;;;;;;;3.07;100.00;99045.19;5352451;26;20000;-53
2024/04/19 00:58:26;;;;;;;12.13;7.00;;;;;;;3.11;100.00;99052.88;5355533;26;20000;-53
2024/04/19 01:00:52;;;;;;;14.40;6.85;;;;;;;3.01;100.00;99052.94;5353605;26;20036;-53
2024/04/19 01:03:18;;;;;;;13.18;7.00;;;;;;;3.03;100.00;99050.97;5342594;26;20001;-53
2024/04/19 01:05:43;;;;;;;12.80;6.63;;;;;;;3.01;100.00;99043.09;5352047;26;20007;-53
2024/04/19 01:08:09;;;;;;;12.40;6.68;;;;;;;3.00;100.00;99045.91;5345205;26;20070;-53
2024/04/19 01:10:35;;;;;;;11.55;7.18;;;;;;;2.93;100.00;99043.00;5350497;26;19997;-53
2024/04/19 01:13:00;;;;;;;11.15;6.63;;;;;;;2.96;100.00;99036.50;5344050;26;20012;-53
2024/04/19 01:15:26;;;;;;;12.63;5.97;;;;;;;2.93;100.00;99029.63;5320976;26;20012;-53
2024/04/19 01:17:51;;;;;;;12.20;6.32;;;;;;;2.94;100.00;99035.84;5345000;26;20001;-53
2024/04/19 01:20:17;;;;;;;10.30;6.28;;;;;;;2.91;100.00;99014.72;5360316;26;20000;-53
2024/04/19 01:22:44;;;;;;;9.32;5.88;;;;;;;2.96;100.00;99034.69;5347200;26;20070;-53
2024/04/19 01:25:15;;;;;;;10.30;6.43;;;;;;;3.03;100.00;99021.56;5347816;26;20460;-53
2024/04/19 01:27:41;;;;;;;10.98;5.95;;;;;;;3.16;100.00;99026.56;5349117;26;20009;-53
2024/04/19 01:30:07;;;;;;;13.60;6.43;;;;;;;3.25;100.00;99029.16;5343885;26;20001;-53
2024/04/19 01:32:32;;;;;;;9.10;5.47;;;;;;;3.33;100.00;99015.03;5337246;26;19997;-53
2024/04/19 01:34:59;;;;;;;10.32;5.95;;;;;;;3.42;100.00;99014.13;5350891;26;20015;-53
2024/04/19 01:37:24;;;;;;;9.27;5.88;;;;;;;3.47;100.00;99009.16;5347111;26;20000;-53
2024/04/19 01:39:49;;;;;;;10.93;5.57;;;;;;;3.55;100.00;99007.56;5356336;26;20772;-53
2024/04/19 01:42:15;;;;;;;11.48;6.03;;;;;;;3.57;100.00;99005.56;5350406;26;20001;-53
2024/04/19 01:44:40;;;;;;;9.00;5.32;;;;;;;3.62;100.00;99004.09;5357427;26;20020;-53
2024/04/19 01:47:05;;;;;;;8.82;5.15;;;;;;;3.59;100.00;98991.03;5348749;26;20005;-53
2024/04/19 01:49:31;;;;;;;8.18;5.25;;;;;;;3.68;100.00;98997.28;5346363;26;20001;-53
2024/04/19 01:51:57;;;;;;;9.98;5.18;;;;;;;3.70;100.00;98989.97;5347850;26;20019;-53
2024/04/19 01:54:23;;;;;;;8.88;5.75;;;;;;;3.65;100.00;98993.09;5334733;26;19997;-53
2024/04/19 01:56:48;;;;;;;10.80;6.10;;;;;;;3.65;100.00;98981.56;5347752;26;20012;-53
2024/04/19 01:59:14;;;;;;;9.32;5.30;;;;;;;3.64;100.00;98979.84;5339608;26;20009;-53
2024/04/19 02:01:39;;;;;;;10.30;5.43;;;;;;;3.60;100.00;98982.00;5337438;26;20017;-53
2024/04/19 02:04:04;;;;;;;11.65;5.97;;;;;;;3.59;100.00;98983.03;5311816;26;20001;-53
2024/04/19 02:06:30;;;;;;;9.57;5.43;;;;;;;3.63;100.00;98975.50;5342710;26;20008;-53
2024/04/19 02:08:55;;;;;;;9.45;6.10;;;;;;;3.68;100.00;98973.22;5347249;26;20005;-53
2024/04/19 02:11:21;;;;;;;10.25;5.60;;;;;;;3.63;100.00;98957.63;5354905;26;20013;-53
2024/04/19 02:13:46;;;;;;;10.00;5.30;;;;;;;3.66;100.00;98959.16;5349001;26;20362;-53
2024/04/19 02:16:11;;;;;;;9.93;5.82;;;;;;;3.68;100.00;98974.06;5340596;26;20000;-54
2024/04/19 02:18:37;;;;;;;9.65;5.50;;;;;;;3.71;100.00;98967.56;5347909;26;20016;-53
2024/04/19 02:21:03;;;;;;;9.52;5.70;;;;;;;3.70;100.00;98963.22;5372231;26;20015;-54
2024/04/19 02:23:37;;;;;;;9.75;5.65;;;;;;;3.69;100.00;98956.16;5349379;26;19997;-54
2024/04/19 02:26:03;;;;;;;11.23;6.38;;;;;;;3.68;100.00;98960.66;5354218;26;20005;-53
2024/04/19 02:31:13;;;;;;;13.02;5.85;;;;;;;3.65;100.00;98949.44;5338891;26;20036;-54
2024/04/19 02:33:39;;;;;;;11.02;5.75;;;;;;;3.66;100.00;98951.97;5348236;26;20000;-53
2024/04/19 02:36:06;;;;;;;11.88;6.25;;;;;;;3.69;100.00;98946.31;5345492;26;20012;-53
2024/04/19 02:38:32;;;;;;;11.38;6.32;;;;;;;3.59;100.00;98925.97;5348765;26;20503;-53
2024/04/19 02:40:57;;;;;;;9.85;5.38;;;;;;;3.70;100.00;98939.13;5343670;26;20001;-53
2024/04/19 02:43:23;;;;;;;11.20;5.65;;;;;;;3.78;100.00;98938.34;5340643;26;20082;-52
2024/04/19 02:45:48;;;;;;;13.35;5.78;;;;;;;3.73;100.00;98931.63;5342771;26;20001;-53
2024/04/19 02:48:19;;;;;;;10.00;5.50;;;;;;;3.77;100.00;98923.28;5347243;26;20001;-54
2024/04/19 02:50:49;;;;;;;9.90;5.43;;;;;;;3.79;100.00;98918.59;5351592;26;20036;-53
2024/04/19 02:53:18;;;;;;;7.88;5.07;;;;;;;3.81;100.00;98916.63;5348377;26;20076;-53
2024/04/19 02:55:43;;;;;;;8.27;5.53;;;;;;;3.86;100.00;98917.81;5350257;26;20360;-52
2024/04/19 02:58:08;;;;;;;8.82;5.35;;;;;;;3.86;100.00;98904.44;5348098;26;20290;-52
2024/04/19 03:00:34;;;;;;;9.27;5.40;;;;;;;3.91;100.00;98912.00;5345558;26;20393;-53
2024/04/19 03:02:59;;;;;;;11.82;5.90;;;;;;;3.87;100.00;98898.06;5349808;26;20026;-53
2024/04/19 03:05:25;;;;;;;8.50;5.03;;;;;;;3.98;100.00;98907.66;5335988;26;20456;-53
2024/04/19 03:07:50;;;;;;;10.90;5.45;;;;;;;3.93;100.00;98892.09;5344367;26;20411;-53
2024/04/19 03:10:16;;;;;;;8.60;5.13;;;;;;;4.02;100.00;98900.19;5337420;26;20627;-53
2024/04/19 03:12:41;;;;;;;8.63;4.97;;;;;;;4.06;100.00;98897.03;5339136;26;19997;-52
2024/04/19 03:15:07;;;;;;;9.70;5.03;;;;;;;4.09;100.00;98890.53;5348984;26;19992;-53
2024/04/19 03:17:33;;;;;;;8.55;4.80;;;;;;;4.10;100.00;98894.88;5338185;26;20437;-53
2024/04/19 03:19:58;;;;;;;8.85;5.38;;;;;;;4.02;100.00;98887.63;5341334;26;20001;-52
2024/04/19 03:22:24;;;;;;;8.40;4.93;;;;;;;4.03;100.00;98883.94;5350962;26;20003;-53
2024/04/19 03:24:50;;;;;;;8.45;5.25;;;;;;;4.03;100.00;98872.41;5347364;26;20000;-52
2024/04/19 03:27:15;;;;;;;9.98;5.43;;;;;;;4.07;100.00;98877.28;5344587;26;20058;-53
2024/04/19 03:29:40;;;;;;;10.82;5.22;;;;;;;4.12;100.00;98866.09;5339269;26;20013;-53
2024/04/19 03:32:06;;;;;;;8.15;5.40;;;;;;;4.04;100.00;98866.91;5344185;26;20023;-52
2024/04/19 03:34:31;;;;;;;8.68;4.68;;;;;;;4.07;100.00;98866.56;5345900;26;20445;-53
2024/04/19 03:36:57;;;;;;;6.85;4.45;;;;;;;4.09;100.00;98855.72;5350409;26;20016;-52
2024/04/19 03:39:22;;;;;;;7.90;4.90;;;;;;;4.06;100.00;98854.19;5346986;26;20434;-52
2024/04/19 03:41:49;;;;;;;13.80;5.35;;;;;;;4.06;100.00;98859.56;5338073;26;20387;-58
2024/04/19 03:46:59;;;;;;;10.07;4.53;;;;;;;4.11;100.00;98849.19;5333332;26;20024;-53
2024/04/19 03:49:24;;;;;;;10.95;4.75;;;;;;;4.15;100.00;98865.78;5344882;26;20361;-52
2024/04/19 03:51:50;;;;;;;7.32;4.78;;;;;;;4.10;100.00;98858.22;5344459;26;20012;-52
2024/04/19 03:54:16;;;;;;;6.07;4.30;;;;;;;4.11;100.00;98856.38;5338468;26;20427;-52
2024/04/19 03:56:41;;;;;;;13.32;4.63;;;;;;;4.09;100.00;98861.91;5350213;26;20007;-52
2024/04/19 03:59:07;;;;;;;8.70;5.30;;;;;;;4.04;100.00;98853.50;5348346;26;20011;-52
2024/04/19 04:01:32;;;;;;;7.90;4.57;;;;;;;3.99;100.00;98855.84;5336655;26;20012;-53
2024/04/19 04:03:59;;;;;;;10.05;5.32;;;;;;;3.94;100.00;98836.72;5343661;26;19993;-53
2024/04/19 04:06:24;;;;;;;11.65;5.25;;;;;;;3.96;100.00;98845.44;5308310;26;20013;-53
2024/04/19 04:08:50;;;;;;;9.15;5.18;;;;;;;3.95;100.00;98841.06;5342447;26;20426;-53
2024/04/19 04:11:15;;;;;;;11.70;5.35;;;;;;;3.91;100.00;98832.53;5341209;26;20009;-53
2024/04/19 04:13:40;;;;;;;8.98;5.50;;;;;;;3.95;100.00;98830.38;5341897;26;20404;-53
2024/04/19 04:16:07;;;;;;;9.23;5.22;;;;;;;3.97;100.00;98824.88;5341538;26;20005;-53
2024/04/19 04:18:34;;;;;;;6.82;4.45;;;;;;;4.01;100.00;98818.19;5342265;26;20001;-55
2024/04/19 04:20:59;;;;;;;9.40;5.30;;;;;;;4.03;100.00;98816.19;5346735;26;20001;-55
2024/04/19 04:23:25;;;;;;;9.93;4.80;;;;;;;4.08;100.00;98809.34;5344900;26;20011;-53
2024/04/19 04:25:50;;;;;;;10.52;4.85;;;;;;;4.14;100.00;98810.56;5347857;26;20009;-53
2024/04/19 04:28:16;;;;;;;7.85;3.78;;;;;;;4.18;100.00;98801.19;5353730;26;20009;-53
2024/04/19 04:30:41;;;;;;;9.68;4.43;;;;;;;4.17;100.00;98789.63;5336596;26;20000;-53
2024/04/19 04:33:07;;;;;;;10.23;4.65;;;;;;;4.26;100.00;98800.38;5344041;26;20012;-53
2024/04/19 04:35:34;;;;;;;7.07;4.38;;;;;;;4.25;100.00;98780.78;5341875;26;19997;-53
2024/04/19 04:37:59;;;;;;;8.43;4.40;;;;;;;4.36;100.00;98787.69;5349820;26;20074;-54
2024/04/19 04:40:25;;;;;;;7.53;4.50;;;;;;;4.35;100.00;98794.03;5349148;26;20395;-54
2024/04/19 04:42:50;;;;;;;11.48;4.68;;;;;;;4.40;100.00;98794.38;5348620;26;20387;-53
2024/04/19 04:45:15;;;;;;;9.15;4.90;;;;;;;4.38;100.00;98783.00;5353938;26;21918;-54
2024/04/19 04:47:41;;;;;;;8.80;4.05;;;;;;;4.45;100.00;98788.53;5339502;26;20016;-54
2024/04/19 04:50:06;;;;;;;8.07;4.05;;;;;;;4.46;100.00;98788.38;5352630;26;20015;-54
2024/04/19 04:52:32;;;;;;;9.77;4.30;;;;;;;4.53;100.00;98789.41;5347883;26;20433;-54
2024/04/19 04:54:57;;;;;;;13.50;6.60;;;;;;;4.59;100.00;98783.38;5346381;26;20055;-54
2024/04/19 04:57:22;;;;;;;7.70;4.47;;;;;;;4.61;100.00;98786.72;5348852;26;19997;-54
2024/04/19 04:59:48;;;;;;;7.25;3.95;;;;;;;4.69;100.00;98768.94;5359441;26;19994;-54
2024/04/19 05:02:13;;;;;;;7.68;4.25;;;;;;;4.76;100.00;98767.28;5350412;26;20000;-54
2024/04/19 05:04:41;;;;;;;8.70;4.22;;;;;;;4.82;100.00;98771.97;5319345;26;20001;-54
2024/04/19 05:07:06;;;;;;;7.78;3.97;;;;;;;4.80;100.00;98768.66;5347507;26;20026;-54
2024/04/19 05:09:32;;;;;;;6.20;3.33;;;;;;;4.92;100.00;98771.81;5341082;26;20019;-54
2024/04/19 05:11:57;;;;;;;11.27;3.83;;;;;;;4.92;100.00;98767.28;5344153;26;20052;-54
2024/04/19 05:14:22;;;;;;;11.75;4.30;;;;;;;5.02;100.00;98776.00;5342374;26;20071;-54
2024/04/19 05:16:48;;;;;;;9.23;4.03;;;;;;;5.08;100.00;98774.47;5308495;26;20079;-54
2024/04/19 05:19:13;;;;;;;7.13;3.45;;;;;;;5.16;100.00;98773.63;5345522;26;20000;-54
2024/04/19 05:21:38;;;;;;;8.93;4.13;;;;;;;5.16;100.00;98779.00;5348091;26;20038;-54
2024/04/19 05:24:04;;;;;;;7.28;4.45;;;;;;;5.23;100.00;98772.78;5350497;26;20012;-54
2024/04/19 05:26:30;;;;;;;8.45;4.00;;;;;;;5.31;100.00;98771.94;5360256;26;20044;-54
2024/04/19 05:28:55;;;;;;;9.57;4.45;;;;;;;5.45;100.00;98776.63;5346497;26;20016;-54
2024/04/19 05:31:20;;;;;;;6.60;4.20;;;;;;;5.37;100.00;98759.69;5352848;26;20072;-54
2024/04/19 05:33:49;;;;;;;8.43;3.70;;;;;;;5.46;100.00;98767.56;5330992;26;20013;-54
2024/04/19 05:36:14;;;;;;;6.05;3.95;;;;;;;5.54;100.00;98771.22;5348928;26;20077;-54
2024/04/19 05:38:40;;;;;;;10.25;4.22;;;;;;;5.60;100.00;98770.53;5324397;26;20417;-54
2024/04/19 05:41:05;;;;;;;5.55;3.45;;;;;;;5.71;100.00;98773.69;5354510;26;20008;-54
2024/04/19 05:43:30;;;;;;;8.02;4.13;;;;;;;5.72;100.00;98769.16;5341645;26;20005;-54
2024/04/19 05:45:56;;;;;;;9.40;4.30;;;;;;;5.65;100.00;98770.84;5352787;26;20001;-54
2024/04/19 05:48:21;;;;;;;8.18;3.80;;;;;;;5.53;100.00;98764.16;5339936;26;20066;-54
2024/04/19 05:50:46;;;;;;;5.53;3.25;;;;;;;5.48;100.00;98778.13;5340952;26;20005;-54
2024/04/19 05:53:12;;;;;;;7.00;3.38;;;;;;;5.58;100.00;98773.41;5348146;26;20018;-54
2024/04/19 05:55:37;;;;;;;6.93;3.42;;;;;;;5.51;100.00;98767.03;5329036;26;20333;-54
2024/04/19 05:58:03;;;;;;;6.55;3.35;;;;;;;5.59;100.00;98752.78;5333614;26;20336;-54
2024/04/19 06:00:28;;;;;;;6.35;3.80;;;;;;;5.77;100.00;98756.06;5358217;26;20000;-54
2024/04/19 06:02:54;;;;;;;5.63;3.30;;;;;;;5.78;100.00;98762.25;5345263;26;20013;-54
2024/04/19 06:05:19;;;;;;;9.95;3.08;;;;;;;5.84;100.00;98767.78;5364220;26;20422;-54
2024/04/19 06:07:46;;;;;;;10.63;3.03;;;;;;;5.62;100.00;98763.16;5340254;26;20013;-54
2024/04/19 06:10:11;;;;;;;6.68;3.55;;;;;;;5.67;100.00;98755.41;5341997;26;19992;-54
2024/04/19 06:12:37;;;;;;;4.88;2.97;;;;;;;5.67;100.00;98750.88;5342558;26;20066;-54
2024/04/19 06:15:03;;;;;;;8.45;3.47;;;;;;;5.91;100.00;98746.44;5345951;26;20010;-54
2024/04/19 06:17:28;;;;;;;6.93;3.05;;;;;;;5.93;100.00;98756.00;5338026;26;20012;-53
2024/04/19 06:19:53;;;;;;;7.43;2.92;;;;;;;6.15;100.00;98753.56;5345850;26;20000;-53
2024/04/19 06:22:19;;;;;;;7.50;2.80;;;;;;;6.23;100.00;98750.81;5350856;26;20000;-53
2024/04/19 06:24:44;;;;;;;5.10;3.20;;;;;;;6.33;100.00;98746.06;5334645;26;20012;-53
2024/04/19 06:27:12;;;;;;;5.28;3.30;;;;;;;6.50;100.00;98740.59;5343897;26;20012;-53
2024/04/19 06:29:38;;;;;;;5.95;2.92;;;;;;;6.60;100.00;98735.78;5338042;26;20012;-53
2024/04/19 06:32:03;;;;;;;6.57;3.30;;;;;;;6.74;100.00;98732.34;5347322;26;20040;-53
2024/04/19 06:34:29;;;;;;;6.05;2.95;;;;;;;6.38;100.00;98731.25;5345301;26;20005;-53
2024/04/19 06:36:54;;;;;;;6.53;3.17;;;;;;;6.68;100.00;98724.13;5338359;26;20016;-53
2024/04/19 06:39:22;;;;;;;7.18;3.15;;;;;;;6.84;100.00;98724.03;5332074;26;20013;-52
2024/04/19 06:41:47;;;;;;;6.43;3.10;;;;;;;6.95;100.00;98720.88;5352385;26;20055;-53
2024/04/19 06:44:12;;;;;;;4.47;3.03;;;;;;;6.84;100.00;98712.41;5344498;26;19993;-53
2024/04/19 06:46:38;;;;;;;6.95;3.25;;;;;;;6.83;100.00;98713.44;5338242;26;20004;-53
2024/04/19 06:49:03;;;;;;;5.65;3.10;;;;;;;6.70;100.00;98700.59;5337185;26;20005;-53
2024/04/19 06:51:29;;;;;;;8.93;3.08;;;;;;;6.65;100.00;98697.63;5348460;26;20036;-53
2024/04/19 06:53:54;;;;;;;5.25;2.83;;;;;;;6.56;100.00;98686.94;5351956;26;19997;-53
2024/04/19 06:56:20;;;;;;;5.40;2.90;;;;;;;6.63;100.00;98692.44;5356159;26;19996;-53
2024/04/19 06:58:48;;;;;;;7.07;3.05;;;;;;;6.67;100.00;98699.13;5358141;26;19993;-53
2024/04/19 07:01:14;;;;;;;3.30;2.30;;;;;;;6.62;100.00;98696.13;5306329;26;20004;-52
2024/04/19 07:03:40;;;;;;;5.63;2.83;;;;;;;6.58;100.00;98701.03;5334323;26;21076;-52
2024/04/19 07:06:12;;;;;;;5.45;3.25;;;;;;;6.55;100.00;98698.72;5327904;26;20012;-52
2024/04/19 07:08:38;;;;;;;7.00;3.28;;;;;;;6.50;100.00;98697.59;5348323;26;20086;-52
2024/04/19 07:11:04;;;;;;;5.60;2.90;;;;;;;6.18;100.00;98709.38;5342972;26;20012;-52
2024/04/19 07:13:30;;;;;;;6.72;3.88;;;;;;;6.01;100.00;98697.91;5358187;26;20000;-52
2024/04/19 07:15:56;;;;;;;6.07;3.30;;;;;;;5.79;100.00;98686.06;5334238;26;20100;-53
2024/04/19 07:18:23;;;;;;;5.95;3.30;;;;;;;5.80;100.00;98702.00;5337793;26;20000;-54
2024/04/19 07:20:49;;;;;;;6.50;3.55;;;;;;;5.68;100.00;98692.66;5341520;26;20449;-53
2024/04/19 07:23:15;;;;;;;11.35;3.28;;;;;;;5.65;100.00;98693.84;5352506;26;20024;-53
2024/04/19 07:25:42;;;;;;;8.02;3.17;;;;;;;5.65;100.00;98695.69;5341701;26;20016;-53
2024/04/19 07:28:07;;;;;;;9.02;3.25;;;;;;;5.57;100.00;98691.22;5351434;26;20429;-54
2024/04/19 07:30:32;;;;;;;5.50;3.17;;;;;;;5.64;100.00;98691.34;5340588;26;20033;-55
2024/04/19 07:32:58;;;;;;;9.07;3.10;;;;;;;5.60;100.00;98684.66;5339165;26;20032;-53
2024/04/19 07:35:23;;;;;;;7.40;3.13;;;;;;;5.39;100.00;98691.44;5334858;26;20078;-55
2024/04/19 07:37:49;;;;;;;7.45;3.10;;;;;;;5.51;100.00;98683.03;5347202;26;20013;-55
2024/04/19 07:40:14;;;;;;;7.28;3.70;;;;;;;5.58;100.00;98681.31;5349465;26;20014;-55
2024/04/19 07:42:40;;;;;;;5.53;2.97;;;;;;;5.48;100.00;98679.69;5360889;26;20007;-54
2024/04/19 07:45:07;;;;;;;6.30;3.08;;;;;;;5.54;100.00;98664.72;5332151;26;20052;-53
2024/04/19 07:47:32;;;;;;;9.68;3.53;;;;;;;5.72;100.00;98676.03;5335953;26;19993;-53
2024/04/19 07:49:58;;;;;;;5.63;3.40;;;;;;;5.80;100.00;98669.78;5339820;26;20005;-55
2024/04/19 07:52:23;;;;;;;6.68;3.10;;;;;;;5.75;100.00;98669.50;5346447;26;20349;-53
2024/04/19 07:54:48;;;;;;;6.13;3.10;;;;;;;5.83;100.00;98652.50;5321723;26;20001;-55
2024/04/19 07:57:14;;;;;;;6.30;3.60;;;;;;;5.85;100.00;98655.84;5342080;26;20099;-53
2024/04/19 07:59:39;;;;;;;7.10;3.80;;;;;;;5.84;100.00;98660.38;5340249;26;19997;-56
2024/04/19 08:02:04;;;;;;;6.50;3.85;;;;;;;5.89;100.00;98636.53;5344978;26;20071;-55
2024/04/19 08:04:30;;;;;;;7.38;3.63;;;;;;;5.74;100.00;98640.97;5351178;26;20015;-55
2024/04/19 08:06:55;;;;;;;7.63;3.70;;;;;;;5.69;100.00;98651.41;5341309;26;20001;-55
2024/04/19 08:09:20;;;;;;;6.93;3.75;;;;;;;5.55;100.00;98633.34;5346573;26;20511;-55
2024/04/19 08:11:46;;;;;;;5.65;3.28;;;;;;;5.42;100.00;98637.47;5316892;26;20065;-54
2024/04/19 08:14:11;;;;;;;5.65;3.42;;;;;;;5.37;100.00;98634.47;5346455;26;20016;-55
2024/04/19 08:16:37;;;;;;;7.07;4.13;;;;;;;5.27;100.00;98631.97;5341262;26;20460;-55
2024/04/19 08:19:04;;;;;;;7.22;4.15;;;;;;;5.41;100.00;98630.41;5339807;26;20012;-55
2024/04/19 08:21:29;;;;;;;7.90;3.90;;;;;;;5.37;100.00;98634.47;5335471;26;20009;-55
2024/04/19 08:23:55;;;;;;;11.10;6.03;;;;;;;5.19;100.00;98639.22;5346649;26;20037;-56
2024/04/19 08:26:20;;;;;;;7.75;3.90;;;;;;;5.24;100.00;98642.22;5345311;26;20005;-55
2024/04/19 08:28:47;;;;;;;7.05;3.63;;;;;;;5.25;100.00;98633.16;5346044;26;20024;-55
2024/04/19 08:31:13;;;;;;;7.72;4.35;;;;;;;5.26;100.00;98634.81;5335333;26;20064;-55
2024/04/19 08:33:38;;;;;;;7.50;4.25;;;;;;;5.32;100.00;98630.59;5346583;26;19997;-55
2024/04/19 08:36:04;;;;;;;6.15;3.50;;;;;;;5.42;100.00;98623.19;5341039;26;20001;-55
2024/04/19 08:38:29;;;;;;;7.10;3.40;;;;;;;5.27;100.00;98628.47;5343651;26;20001;-55
2024/04/19 08:41:01;;;;;;;5.70;3.20;;;;;;;5.29;100.00;98634.47;5346952;26;20441;-54
2024/04/19 08:43:31;;;;;;;8.13;3.60;;;;;;;5.24;100.00;98620.78;5341557;26;19996;-55
2024/04/19 08:45:58;;;;;;;5.70;3.30;;;;;;;4.94;100.00;98625.03;5345364;26;20337;-54
2024/04/19 08:48:24;;;;;;;4.63;2.58;;;;;;;4.84;100.00;98598.41;5350523;26;20037;-54
2024/04/19 08:50:50;;;;;;;5.28;2.63;;;;;;;4.82;100.00;98598.63;5355787;26;20005;-53
2024/04/19 08:53:16;;;;;;;4.50;2.80;;;;;;;4.81;100.00;98601.44;5355341;26;20005;-54
2024/04/19 08:55:43;;;;;;;4.47;2.40;;;;;;;4.78;100.00;98589.22;5359350;26;20005;-53
2024/04/19 08:58:08;;;;;;;5.85;2.42;;;;;;;4.74;100.00;98581.69;5342427;26;20009;-53
2024/04/19 09:00:34;;;;;;;6.05;2.55;;;;;;;4.84;100.00;98571.63;5339529;26;20075;-53
2024/04/19 09:02:59;;;;;;;6.00;2.35;;;;;;;4.96;100.00;98569.41;5339148;26;20002;-53
2024/04/19 09:05:25;;;;;;;2.53;1.73;;;;;;;4.90;100.00;98557.53;5353439;26;20007;-53
2024/04/19 09:07:50;;;;;;;6.45;2.50;;;;;;;4.86;100.00;98548.16;5341115;26;19993;-54
2024/04/19 09:10:18;;;;;;;3.65;2.08;;;;;;;4.92;100.00;98555.50;5357226;26;20017;-54
2024/04/19 09:12:44;;;;;;;3.38;1.75;;;;;;;4.90;100.00;98557.53;5334941;26;20016;-53
2024/04/19 09:15:09;;;;;;;2.58;1.73;;;;;;;4.72;100.00;98530.13;5418119;21;20231;-75
2024/04/19 09:17:34;;;;;;;3.42;1.98;;;;;;;4.77;100.00;98515.22;5417999;26;19997;-75
2024/04/19 09:20:00;;;;;;;3.85;2.08;;;;;;;4.83;100.00;98527.91;5403110;26;19991;-76
2024/04/19 09:22:25;;;;;;;3.40;2.05;;;;;;;4.72;100.00;98506.03;5433944;26;20000;-76
2024/04/19 09:24:54;;;;;;;3.38;2.10;;;;;;;4.79;100.00;98523.06;5396703;26;20065;-75
2024/04/19 09:27:21;;;;;;;4.65;2.00;;;;;;;4.66;100.00;98523.59;5399035;26;20003;-75
2024/04/19 09:29:47;;;;;;;3.35;2.08;;;;;;;4.56;100.00;98531.84;5421533;21;20000;-64
2024/04/19 09:32:12;;;;;;;4.85;2.38;;;;;;;4.57;100.00;98525.47;5416939;26;20339;-60
2024/04/19 09:34:38;;;;;;;3.97;2.00;;;;;;;4.54;100.00;98520.47;5407193;26;20069;-57
2024/04/19 09:37:04;;;;;;;6.00;2.05;;;;;;;4.55;100.00;98514.09;5417512;26;20015;-57
2024/04/19 09:39:35;;;;;;;7.22;2.30;;;;;;;4.36;100.00;98503.78;5408781;26;19999;-61
2024/04/19 09:42:01;;;;;;;3.90;2.20;;;;;;;4.28;100.00;98511.84;5413114;26;20018;-62
2024/04/19 09:44:29;;;;;;;6.47;1.95;;;;;;;4.18;100.00;98507.47;5418750;26;19995;-61
2024/04/19 09:47:01;;;;;;;3.20;2.00;;;;;;;4.22;100.00;98507.13;5413261;26;20015;-62
2024/04/19 09:49:30;;;;;;;2.65;1.70;;;;;;;4.13;100.00;98496.44;5426703;26;20328;-57
2024/04/19 09:51:57;;;;;;;4.15;1.92;;;;;;;4.04;100.00;98493.97;5404273;26;20004;-62
2024/04/19 09:54:27;;;;;;;4.45;2.25;;;;;;;4.13;100.00;98506.31;5426847;26;20411;-57
2024/04/19 09:57:00;;;;;;;3.65;2.00;;;;;;;4.16;100.00;98492.59;5412291;26;20004;-62
2024/04/19 09:59:27;;;;;;;6.97;2.60;;;;;;;4.12;100.00;98470.69;5426102;26;20000;-61
2024/04/19 10:01:54;;;;;;;3.25;2.20;;;;;;;4.14;100.00;98478.56;5413283;26;20010;-57
2024/04/19 10:04:20;;;;;;;3.92;2.08;;;;;;;4.13;100.00;98482.22;5417909;26;20323;-61
2024/04/19 10:06:47;;;;;;;4.78;2.47;;;;;;;4.10;100.00;98466.50;5416774;26;20007;-62
2024/04/19 10:09:17;;;;;;;5.07;2.55;;;;;;;4.25;100.00;98472.00;5415909;26;20396;-57
2024/04/19 10:11:48;;;;;;;5.13;2.50;;;;;;;4.24;100.00;98467.63;5420290;26;20007;-58
2024/04/19 10:14:14;;;;;;;5.13;2.50;;;;;;;4.26;100.00;98453.06;5412694;26;20014;-57
2024/04/19 10:16:40;;;;;;;4.20;2.25;;;;;;;4.30;100.00;98462.44;5412192;26;20401;-57
2024/04/19 10:19:13;;;;;;;3.50;2.17;;;;;;;4.22;100.00;98453.59;5375546;26;20436;-57
2024/04/19 10:21:39;;;;;;;3.65;2.10;;;;;;;4.29;100.00;98462.59;5417476;26;20002;-58
2024/04/19 10:24:22;;;;;;;3.60;2.40;;;;;;;4.24;100.00;98449.72;5414342;26;20000;-58
2024/04/19 10:26:51;;;;;;;3.22;1.63;;;;;;;4.35;100.00;98456.59;5420479;26;19995;-57
2024/04/19 10:29:25;;;;;;;;;;;;;;;4.30;100.00;98445.56;5422011;26;20003;-57
2024/04/19 10:31:53;;;;;;;3.65;2.30;;;;;;;4.26;100.00;98430.81;5402429;26;19925;-56
2024/04/19 10:34:20;;;;;;;3.45;2.20;;;;;;;4.48;100.00;98442.63;5411896;26;20384;-57
2024/04/19 10:36:46;;;;;;;6.80;2.55;;;;;;;4.65;100.00;98438.88;5375408;26;20013;-58
2024/04/19 10:39:12;;;;;;;3.80;1.85;;;;;;;4.49;100.00;98431.75;5413517;26;20004;-60
2024/04/19 10:41:51;;;;;;;4.32;2.30;;;;;;;4.58;100.00;98432.53;5406349;26;19999;-57
2024/04/19 10:44:16;;;;;;;4.40;2.42;;;;;;;4.54;100.00;98426.69;5423734;26;20003;-57
2024/04/19 10:46:47;;;;;;;3.45;2.38;;;;;;;4.58;100.00;98409.28;5410436;26;20019;-57
2024/04/19 10:49:15;;;;;;;3.88;2.08;;;;;;;4.59;100.00;98408.25;5421970;26;19999;-57
2024/04/19 10:51:41;;;;;;;6.93;2.35;;;;;;;4.63;100.00;98398.00;5404762;26;20435;-57
2024/04/19 10:54:07;;;;;;;3.25;2.13;;;;;;;4.65;100.00;98396.00;5408548;26;20101;-57
2024/04/19 10:56:36;;;;;;;2.92;1.83;;;;;;;4.64;100.00;98402.38;5417635;26;20076;-57
2024/04/19 10:59:01;;;;;;;3.35;1.88;;;;;;;4.72;100.00;98401.50;5420096;26;19995;-57
2024/04/19 11:01:27;;;;;;;3.78;2.05;;;;;;;4.82;100.00;98396.72;5420191;26;20031;-58
2024/04/19 11:03:53;;;;;;;3.50;2.05;;;;;;;4.91;100.00;98393.00;5435339;26;20033;-58
2024/04/19 11:06:18;;;;;;;3.58;1.80;;;;;;;4.91;100.00;98384.13;5419536;26;20312;-58
2024/04/19 11:08:45;;;;;;;3.13;1.52;;;;;;;4.81;100.00;98373.63;5414992;26;20450;-57
2024/04/19 11:11:12;;;;;;;3.17;1.77;;;;;;;4.88;100.00;98374.59;5422259;26;20450;-58
2024/04/19 11:13:38;;;;;;;2.78;1.70;;;;;;;4.88;100.00;98373.78;5438314;26;20079;-58
2024/04/19 11:16:04;;;;;;;3.17;1.50;;;;;;;4.92;100.00;98367.03;5416340;26;20447;-58
2024/04/19 11:18:29;;;;;;;2.70;1.65;;;;;;;4.89;100.00;98367.38;5381992;26;20007;-59
2024/04/19 11:20:56;;;;;;;3.20;2.05;;;;;;;4.93;100.00;98360.69;5379500;26;20063;-57
2024/04/19 11:23:21;;;;;;;2.50;1.67;;;;;;;4.89;100.00;98368.22;5412905;26;19999;-58
2024/04/19 11:25:47;;;;;;;3.20;2.03;;;;;;;5.06;100.00;98358.22;5387683;26;20010;-58
2024/04/19 11:28:14;;;;;;;4.03;2.00;;;;;;;5.12;100.00;98354.81;5421740;26;20000;-58
2024/04/19 11:30:39;;;;;;;6.13;2.15;;;;;;;5.19;100.00;98345.06;5425983;26;20011;-58